Huvudsida
METAR-TAF:

METAR-TAF

Flygplatser :

Harbin Taiping International Airport

Harbin, Kina

latitud: 45-45N, longitud: 126-46E, höjd: 143 m

Aktuellt väderrapport

Denna rapport gjordes för 45 minuter sedan, klockan 04:00 UTC
Vind 10 kt från väst/nordväst
Temperatur 0°C
Fuktighet 55%
Tryck 1022 hPa
Sikt 10 km eller mer
Mulet på en höjd av 3000 ft

METAR: ZYHB 150400Z 30005MPS 9999 OVC030 M00/M08 Q1022 NOSIG

Tid: 12:45 (04:45 UTC)

Väderprognos

Denna rapport gjordes för 9 timmar och 16 minuter sedan, klockan 19:29 UTC
Prognos gäller från 15 kl. 00 UTC till 15 kl. 24 UTC
Vind 12 kt från väst/nordväst i byarna ända upp till 23 kt
Sikt: 6000 m
Brutna moln på en höjd av 2600 ft
Temporärt
från 15 kl. 00 UTC till 15 kl. 04 UTC
Sikt: 1600 m
lätta snöbyar

TAF: ZYHB 141929Z 1500/1524 30006G12MPS 6000 BKN026 TX02/1506Z TNM09/21Z TEMPO 1500/1504 1600 -SHSN

Aktuella väderrapporter och prognoser från 4000 flygplatser (METAR- och TAF-rapporter).

De tillgängliga stationerna syns som gula och röda prickar på kartan.

För musen över prickarna för att se namnen på stationerna.

Klicka sedan för att få väderrapporter och prognoser.

För att ändra kartan: Klicka på de gröna knapparna med ett svart kors på för att zooma in; den gröna knappen med ett streck på för att zooma ut; eller på de gröna pilarna för angränsande kartor.


METAR-TAF: